Time;durP1;ratioP1;P1;durP2;ratioP2;P2;SDS_P1;SDS_P2;PMS_P1;PMS_P2;Temp;Humidity;BMP_temperature;BMP_pressure;BME280_temperature;BME280_humidity;BME280_pressure;Samples;Min_cycle;Max_cycle;Signal;HPM_P1;HPM_P2
2023/12/28 00:01:45;;;;;;;8.55;5.97;;;2.20;1.00;;;;;;5188734;28;20065;-32
2023/12/28 00:04:17;;;;;;;9.23;5.70;;;2.20;1.00;;;;;;5178554;28;20230;-32
2023/12/28 00:06:48;;;;;;;11.38;5.47;;;2.20;1.00;;;;;;5189413;28;20029;-31
2023/12/28 00:09:19;;;;;;;11.00;5.78;;;2.20;1.00;;;;;;5192304;28;20033;-32
2023/12/28 00:11:55;;;;;;;7.47;5.53;;;2.10;1.00;;;;;;5180547;28;20033;-32
2023/12/28 00:14:26;;;;;;;10.88;5.90;;;2.10;1.00;;;;;;5186071;28;20431;-32
2023/12/28 00:17:00;;;;;;;9.02;5.35;;;1.90;1.00;;;;;;5188143;28;20029;-33
2023/12/28 00:19:33;;;;;;;9.33;5.70;;;1.90;1.00;;;;;;5192821;28;20056;-32
2023/12/28 00:22:04;;;;;;;9.10;5.82;;;1.90;1.00;;;;;;5190361;28;20276;-34
2023/12/28 00:24:36;;;;;;;9.88;6.10;;;1.90;1.00;;;;;;5176310;28;20037;-32
2023/12/28 00:27:07;;;;;;;7.85;5.50;;;1.80;1.00;;;;;;5184054;28;20044;-32
2023/12/28 00:29:41;;;;;;;10.75;6.35;;;1.80;1.00;;;;;;5188902;28;20037;-32
2023/12/28 00:32:15;;;;;;;10.07;6.22;;;1.80;1.00;;;;;;5192375;28;20047;-32
2023/12/28 00:34:46;;;;;;;13.32;5.95;;;1.80;1.00;;;;;;5197090;28;20485;-32
2023/12/28 00:37:17;;;;;;;9.88;5.68;;;1.70;1.00;;;;;;5167369;28;20037;-32
2023/12/28 00:39:49;;;;;;;10.85;5.90;;;1.70;1.00;;;;;;5191185;28;20032;-32
2023/12/28 00:42:23;;;;;;;9.77;6.22;;;1.60;1.00;;;;;;5180865;28;20295;-32
2023/12/28 00:44:55;;;;;;;10.38;6.22;;;1.60;1.00;;;;;;5196459;28;20029;-31
2023/12/28 00:47:27;;;;;;;12.52;6.43;;;1.60;1.00;;;;;;5179461;28;20357;-36
2023/12/28 00:49:58;;;;;;;10.98;6.28;;;1.60;1.00;;;;;;5160667;28;20045;-33
2023/12/28 00:52:32;;;;;;;14.27;6.75;;;1.70;1.00;;;;;;5168060;28;20237;-32
2023/12/28 00:55:11;;;;;;;14.00;7.00;;;1.80;1.00;;;;;;5179252;28;20251;-32
2023/12/28 00:57:45;;;;;;;9.95;6.55;;;1.70;1.00;;;;;;5177960;28;20328;-31
2023/12/28 01:00:16;;;;;;;12.88;7.10;;;1.80;1.00;;;;;;5156012;28;20040;-32
2023/12/28 01:02:50;;;;;;;14.77;7.72;;;1.90;1.00;;;;;;5170326;28;20030;-32
2023/12/28 01:05:21;;;;;;;;;;;2.00;1.00;;;;;;5179344;28;20024;-32
2023/12/28 01:07:55;;;;;;;11.60;6.95;;;2.10;1.00;;;;;;5177483;28;19917;-31
2023/12/28 01:10:26;;;;;;;11.10;6.85;;;2.20;1.00;;;;;;5176802;28;20326;-31
2023/12/28 01:13:00;;;;;;;11.50;6.47;;;2.20;1.00;;;;;;5144651;28;20052;-31
2023/12/28 01:15:31;;;;;;;15.37;7.20;;;2.20;1.00;;;;;;5157937;28;20038;-31
2023/12/28 01:18:03;;;;;;;11.00;7.13;;;2.30;1.00;;;;;;5178455;28;20363;-32
2023/12/28 01:20:34;;;;;;;12.75;6.97;;;2.30;1.00;;;;;;5177541;28;20029;-32
2023/12/28 01:23:09;;;;;;;14.85;7.93;;;2.40;1.00;;;;;;5168270;28;20032;-32
2023/12/28 01:25:42;;;;;;;;;;;2.40;1.00;;;;;;5127350;28;20046;-32
2023/12/28 01:28:16;;;;;;;12.52;7.50;;;2.50;1.00;;;;;;5148141;28;19920;-32
2023/12/28 01:30:47;;;;;;;12.50;7.80;;;2.60;1.00;;;;;;5172854;28;20045;-32
2023/12/28 01:33:19;;;;;;;15.40;8.73;;;2.70;1.00;;;;;;5176227;28;20363;-32
2023/12/28 01:35:50;;;;;;;16.50;10.07;;;2.70;1.00;;;;;;5174475;28;20022;-32
2023/12/28 01:38:21;;;;;;;15.65;8.93;;;2.80;1.00;;;;;;5177258;28;20363;-32
2023/12/28 01:40:55;;;;;;;20.00;9.02;;;2.90;1.00;;;;;;5177377;28;20208;-31
2023/12/28 01:43:30;;;;;;;22.92;12.02;;;2.90;1.00;;;;;;5156645;28;20150;-31
2023/12/28 01:46:02;;;;;;;18.50;10.20;;;3.00;1.00;;;;;;5160878;28;20233;-34
2023/12/28 01:48:36;;;;;;;23.08;11.07;;;3.00;1.00;;;;;;5179473;28;20044;-36
2023/12/28 01:51:08;;;;;;;34.92;12.30;;;3.10;1.00;;;;;;5175878;28;20046;-32
2023/12/28 01:53:42;;;;;;;26.73;11.07;;;3.20;1.00;;;;;;5164679;28;20041;-32
2023/12/28 01:56:15;;;;;;;48.47;12.88;;;3.20;1.00;;;;;;5152937;28;20041;-32
2023/12/28 01:58:52;;;;;;;33.78;10.73;;;3.20;1.00;;;;;;5176793;28;20104;-32
2023/12/28 02:01:26;;;;;;;40.13;11.02;;;3.10;1.00;;;;;;5170027;28;20431;-32
2023/12/28 02:04:02;;;;;;;26.60;9.27;;;3.00;1.00;;;;;;5169206;28;20470;-32
2023/12/28 02:06:35;;;;;;;20.17;10.07;;;2.90;1.00;;;;;;5178897;28;20242;-32
2023/12/28 02:09:07;;;;;;;20.67;10.10;;;2.80;1.00;;;;;;5178758;28;20025;-31
2023/12/28 02:11:41;;;;;;;28.23;9.90;;;2.70;1.00;;;;;;5172144;28;20111;-32
2023/12/28 02:14:15;;;;;;;21.83;10.35;;;2.70;1.00;;;;;;5159733;28;20314;-32
2023/12/28 02:16:58;;;;;;;42.63;10.50;;;2.60;1.00;;;;;;5174248;28;20249;-32
2023/12/28 02:19:53;;;;;;;28.50;9.65;;;2.60;1.00;;;;;;5178130;28;20242;-35
2023/12/28 02:22:30;;;;;;;33.65;11.05;;;2.50;1.00;;;;;;5168272;28;20032;-32
2023/12/28 02:25:06;;;;;;;23.23;9.57;;;2.40;1.00;;;;;;5177769;28;20037;-31
2023/12/28 02:27:48;;;;;;;40.22;11.60;;;2.30;1.00;;;;;;5177842;28;20030;-32
2023/12/28 02:30:22;;;;;;;25.20;10.35;;;2.20;1.00;;;;;;5157865;28;20332;-32
2023/12/28 02:33:10;;;;;;;;;;;2.10;1.00;;;;;;5165589;28;20415;-32
2023/12/28 02:36:10;;;;;;;19.23;8.88;;;1.90;1.00;;;;;;5173111;28;19953;-32
2023/12/28 02:38:43;;;;;;;20.95;9.57;;;1.90;1.00;;;;;;5174175;28;20038;-32
2023/12/28 02:41:15;;;;;;;17.80;8.50;;;1.80;1.00;;;;;;5177302;28;20034;-32
2023/12/28 02:43:49;;;;;;;20.40;8.10;;;1.70;1.00;;;;;;5142739;28;20041;-32
2023/12/28 02:46:20;;;;;;;17.02;9.27;;;1.70;1.00;;;;;;5161184;28;20033;-32
2023/12/28 02:48:57;;;;;;;15.80;7.85;;;1.70;1.00;;;;;;5178228;28;20075;-32
2023/12/28 02:51:28;;;;;;;18.10;9.18;;;1.70;1.00;;;;;;5169664;28;20026;-32
2023/12/28 02:54:02;;;;;;;18.17;9.43;;;1.90;1.00;;;;;;5166900;28;21205;-32
2023/12/28 02:56:33;;;;;;;19.65;7.85;;;2.10;1.00;;;;;;5170030;28;20034;-32
2023/12/28 02:59:04;;;;;;;19.85;8.60;;;2.20;1.00;;;;;;5177067;28;20034;-32
2023/12/28 03:01:56;;;;;;;19.33;8.93;;;2.30;1.00;;;;;;5154736;28;20384;-32
2023/12/28 03:04:27;;;;;;;24.63;9.23;;;2.30;1.00;;;;;;5148638;28;20038;-32
2023/12/28 03:06:58;;;;;;;28.60;8.77;;;2.40;1.00;;;;;;5176643;28;20040;-32
2023/12/28 03:09:30;;;;;;;26.02;9.05;;;2.40;1.00;;;;;;5176610;28;20060;-32
2023/12/28 03:12:01;;;;;;;59.22;11.07;;;2.50;1.00;;;;;;5159756;28;20341;-33
2023/12/28 03:14:34;;;;;;;30.13;8.80;;;2.40;1.00;;;;;;5170737;28;20018;-33
2023/12/28 03:17:09;;;;;;;31.77;10.07;;;2.50;1.00;;;;;;5145214;28;20033;-33
2023/12/28 03:19:40;;;;;;;53.13;10.93;;;2.50;1.00;;;;;;5177512;28;20046;-33
2023/12/28 03:22:15;;;;;;;25.42;9.13;;;2.50;1.00;;;;;;5181038;28;20260;-33
2023/12/28 03:24:48;;;;;;;25.48;9.95;;;2.60;1.00;;;;;;5176805;28;20373;-33
2023/12/28 03:27:24;;;;;;;22.15;10.48;;;2.50;1.00;;;;;;5144324;28;20046;-32
2023/12/28 03:29:55;;;;;;;35.35;9.95;;;2.50;1.00;;;;;;5159974;28;20288;-33
2023/12/28 03:32:26;;;;;;;23.10;9.80;;;2.50;1.00;;;;;;5139307;28;20045;-32
2023/12/28 03:34:57;;;;;;;29.15;10.43;;;2.50;1.00;;;;;;5172024;28;20044;-34
2023/12/28 03:37:29;;;;;;;77.22;11.32;;;2.60;1.00;;;;;;5171823;28;20034;-32
2023/12/28 03:40:02;;;;;;;42.28;11.27;;;2.70;1.00;;;;;;5169599;28;20032;-32
2023/12/28 03:42:38;;;;;;;29.33;10.77;;;2.60;1.00;;;;;;5182349;28;20306;-32
2023/12/28 03:45:11;;;;;;;36.03;9.82;;;2.60;1.00;;;;;;5140242;28;20265;-32
2023/12/28 03:47:43;;;;;;;36.50;9.32;;;2.60;1.00;;;;;;5175651;28;20517;-33
2023/12/28 03:50:14;;;;;;;38.30;10.43;;;2.60;1.00;;;;;;5161236;28;20042;-33
2023/12/28 03:53:04;;;;;;;17.80;8.65;;;2.60;1.00;;;;;;5173922;28;20261;-33
2023/12/28 03:55:36;;;;;;;39.58;9.70;;;2.60;1.00;;;;;;5142031;28;20339;-33
2023/12/28 03:58:09;;;;;;;39.05;9.82;;;2.50;1.00;;;;;;5188235;28;20144;-33
2023/12/28 04:00:43;;;;;;;37.80;9.27;;;2.50;1.00;;;;;;5162201;28;20328;-32
2023/12/28 04:03:14;;;;;;;16.23;7.93;;;2.60;1.00;;;;;;5190418;28;20338;-32
2023/12/28 04:05:50;;;;;;;22.35;8.88;;;2.40;1.00;;;;;;5160734;28;20135;-32
2023/12/28 04:08:24;;;;;;;19.92;8.45;;;2.40;1.00;;;;;;5178885;28;20030;-32
2023/12/28 04:10:55;;;;;;;17.15;8.35;;;2.40;1.00;;;;;;5188122;28;20340;-32
2023/12/28 04:13:26;;;;;;;17.90;8.35;;;2.40;1.00;;;;;;5176498;28;20189;-32
2023/12/28 04:15:58;;;;;;;16.20;8.68;;;2.40;1.00;;;;;;5166599;28;20034;-32
2023/12/28 04:18:34;;;;;;;17.63;8.32;;;2.30;1.00;;;;;;5179725;28;20306;-33
2023/12/28 04:21:09;;;;;;;18.63;8.10;;;2.20;1.00;;;;;;5182476;28;20238;-33
2023/12/28 04:23:49;;;;;;;22.45;7.82;;;2.20;1.00;;;;;;5201276;28;20037;-32
2023/12/28 04:26:20;;;;;;;16.70;8.63;;;2.30;1.00;;;;;;5176690;28;20034;-32
2023/12/28 04:28:56;;;;;;;19.88;8.80;;;2.40;1.00;;;;;;5187152;28;20040;-32
2023/12/28 04:31:30;;;;;;;12.68;7.40;;;2.60;1.00;;;;;;5171818;28;20324;-32
2023/12/28 04:34:02;;;;;;;17.65;8.75;;;2.60;1.00;;;;;;5180078;28;20221;-32
2023/12/28 04:36:45;;;;;;;29.67;9.00;;;2.50;1.00;;;;;;5160803;28;20038;-32
2023/12/28 04:39:18;;;;;;;28.73;9.27;;;2.40;1.00;;;;;;5179964;28;20329;-32
2023/12/28 04:41:50;;;;;;;34.45;8.52;;;2.30;1.00;;;;;;5162539;28;20044;-32
2023/12/28 04:44:21;;;;;;;17.58;8.02;;;2.10;1.00;;;;;;5156589;28;20042;-32
2023/12/28 04:46:52;;;;;;;19.20;8.02;;;2.10;1.00;;;;;;5166833;28;20038;-32
2023/12/28 04:49:23;;;;;;;24.13;8.13;;;2.10;1.00;;;;;;5161169;28;20221;-32
2023/12/28 04:51:55;;;;;;;22.08;8.75;;;2.10;1.00;;;;;;5177491;28;20029;-32
2023/12/28 04:54:28;;;;;;;18.85;8.68;;;2.10;1.00;;;;;;5190530;28;20033;-32
2023/12/28 04:56:59;;;;;;;37.72;9.25;;;2.00;1.00;;;;;;5194905;28;20056;-32
2023/12/28 04:59:33;;;;;;;21.02;8.45;;;2.00;1.00;;;;;;5188802;28;20029;-32
2023/12/28 05:02:07;;;;;;;41.50;9.90;;;2.00;1.00;;;;;;5191430;28;20034;-32
2023/12/28 05:04:38;;;;;;;46.35;10.23;;;2.00;1.00;;;;;;5195977;28;20034;-32
2023/12/28 05:07:15;;;;;;;19.27;8.48;;;2.10;1.00;;;;;;5186401;28;20039;-33
2023/12/28 05:09:50;;;;;;;22.50;8.70;;;2.10;1.00;;;;;;5171342;28;20045;-31
2023/12/28 05:12:21;;;;;;;19.02;9.00;;;2.20;1.00;;;;;;5198879;28;20037;-31
2023/12/28 05:14:52;;;;;;;19.65;8.20;;;2.20;1.00;;;;;;5195401;28;20342;-31
2023/12/28 05:17:26;;;;;;;16.48;7.85;;;2.20;1.00;;;;;;5188759;28;20033;-33
2023/12/28 05:20:03;;;;;;;17.00;7.45;;;2.10;1.00;;;;;;5199175;28;20029;-33
2023/12/28 05:22:37;;;;;;;17.33;8.13;;;2.00;1.00;;;;;;5199195;28;20033;-32
2023/12/28 05:25:13;;;;;;;23.50;8.30;;;1.90;1.00;;;;;;5198003;28;20033;-33
2023/12/28 05:27:44;;;;;;;21.73;7.40;;;1.90;1.00;;;;;;5199817;28;20303;-33
2023/12/28 05:30:16;;;;;;;45.80;9.35;;;2.00;1.00;;;;;;5193249;28;20043;-33
2023/12/28 05:32:52;;;;;;;20.63;8.60;;;2.00;1.00;;;;;;5168461;28;20033;-32
2023/12/28 05:35:26;;;;;;;58.80;9.48;;;2.00;1.00;;;;;;5193488;28;20043;-32
2023/12/28 05:37:57;;;;;;;20.35;8.15;;;2.00;1.00;;;;;;5199834;28;20198;-32
2023/12/28 05:40:34;;;;;;;21.10;7.60;;;2.00;1.00;;;;;;5199648;28;20234;-32
2023/12/28 05:43:07;;;;;;;23.40;7.25;;;2.00;1.00;;;;;;5177738;28;20025;-32
2023/12/28 05:45:38;;;;;;;19.80;8.02;;;2.10;1.00;;;;;;5174349;28;20033;-32
2023/12/28 05:48:10;;;;;;;24.15;7.75;;;2.10;1.00;;;;;;5179732;28;20037;-32
2023/12/28 05:50:44;;;;;;;30.25;7.85;;;2.10;1.00;;;;;;5174515;28;20041;-32
2023/12/28 05:53:15;;;;;;;48.67;8.95;;;2.10;1.00;;;;;;5196552;28;20017;-33
2023/12/28 05:55:46;;;;;;;30.75;7.95;;;2.10;1.00;;;;;;5151109;28;20033;-32
2023/12/28 05:58:20;;;;;;;33.17;7.82;;;2.00;1.00;;;;;;5177345;28;20022;-31
2023/12/28 06:00:54;;;;;;;25.35;7.97;;;2.00;1.00;;;;;;5173245;28;20206;-32
2023/12/28 06:03:29;;;;;;;25.52;8.15;;;2.10;1.00;;;;;;5198295;28;20056;-32
2023/12/28 06:06:03;;;;;;;26.02;7.43;;;2.20;1.00;;;;;;5198376;28;20029;-34
2023/12/28 06:08:34;;;;;;;;;;;2.30;1.00;;;;;;5174018;28;20229;-32
2023/12/28 06:11:07;;;;;;;58.05;8.00;;;2.30;1.00;;;;;;5194718;28;19980;-31
2023/12/28 06:13:43;;;;;;;29.25;8.07;;;2.30;1.00;;;;;;5170370;28;20044;-32
2023/12/28 06:16:20;;;;;;;38.10;8.98;;;2.30;1.00;;;;;;5195265;28;20033;-31
2023/12/28 06:18:53;;;;;;;50.70;9.43;;;2.40;1.00;;;;;;5197585;28;20053;-31
2023/12/28 06:21:25;;;;;;;33.58;8.52;;;2.40;1.00;;;;;;5178681;28;20025;-31
2023/12/28 06:23:59;;;;;;;48.90;8.00;;;2.40;1.00;;;;;;5171669;28;20025;-31
2023/12/28 06:26:35;;;;;;;37.22;7.85;;;2.30;1.00;;;;;;5192019;28;20045;-32
2023/12/28 06:29:06;;;;;;;27.75;8.13;;;2.20;1.00;;;;;;5197406;28;20029;-32
2023/12/28 06:31:40;;;;;;;51.15;8.98;;;2.10;1.00;;;;;;5193644;28;20220;-32
2023/12/28 06:34:14;;;;;;;40.50;6.80;;;2.20;1.00;;;;;;5197268;28;20067;-32
2023/12/28 06:36:45;;;;;;;23.30;6.78;;;2.20;1.00;;;;;;5179373;28;20213;-32
2023/12/28 06:39:19;;;;;;;29.98;7.65;;;2.20;1.00;;;;;;5180310;28;20212;-32
2023/12/28 06:41:50;;;;;;;20.75;7.10;;;2.20;1.00;;;;;;5155883;28;20531;-32
2023/12/28 06:44:25;;;;;;;22.55;8.23;;;2.30;1.00;;;;;;5177441;28;20045;-32
2023/12/28 06:46:56;;;;;;;;;;;2.40;1.00;;;;;;5176313;28;20214;-32
2023/12/28 06:49:27;;;;;;;21.08;7.82;;;2.40;1.00;;;;;;5197565;28;20420;-32
2023/12/28 06:51:59;;;;;;;21.77;8.55;;;2.50;1.00;;;;;;5195890;28;20043;-32
2023/12/28 06:54:30;;;;;;;24.85;8.82;;;2.70;1.00;;;;;;5197744;28;20040;-32
2023/12/28 06:57:01;;;;;;;28.15;9.40;;;2.80;1.00;;;;;;5177937;28;20033;-32
2023/12/28 06:59:32;;;;;;;36.20;11.48;;;2.80;1.00;;;;;;5179122;28;20026;-33
2023/12/28 07:02:06;;;;;;;24.85;10.82;;;2.90;1.00;;;;;;5179075;28;20040;-33
2023/12/28 07:04:38;;;;;;;27.05;10.38;;;3.00;1.00;;;;;;5178017;28;20415;-35
2023/12/28 07:07:14;;;;;;;20.65;10.30;;;3.10;1.00;;;;;;5197631;28;20033;-33
2023/12/28 07:09:49;;;;;;;20.65;10.15;;;3.20;1.00;;;;;;5197485;28;20230;-33
2023/12/28 07:12:23;;;;;;;29.23;12.55;;;3.40;1.00;;;;;;5196579;28;20033;-33
2023/12/28 07:14:57;;;;;;;22.38;11.52;;;3.50;1.00;;;;;;5191893;28;20037;-32
2023/12/28 07:17:29;;;;;;;26.95;11.57;;;3.40;1.00;;;;;;5156750;28;20037;-32
2023/12/28 07:20:03;;;;;;;25.90;12.45;;;3.60;1.00;;;;;;5181319;28;20036;-32
2023/12/28 07:22:34;;;;;;;26.08;11.15;;;3.70;1.00;;;;;;5190092;28;20294;-33
2023/12/28 07:25:11;;;;;;;28.17;10.98;;;3.80;1.00;;;;;;5176967;28;20068;-33
2023/12/28 07:27:43;;;;;;;26.50;11.90;;;3.90;1.00;;;;;;5171322;28;20037;-33
2023/12/28 07:30:16;;;;;;;30.63;10.60;;;3.90;1.00;;;;;;5176477;28;20033;-32
2023/12/28 07:32:51;;;;;;;28.48;11.98;;;3.90;1.00;;;;;;5177993;28;20033;-32
2023/12/28 07:35:23;;;;;;;20.52;9.68;;;4.00;1.00;;;;;;5166820;28;20348;-32
2023/12/28 07:37:54;;;;;;;24.48;11.45;;;4.10;1.00;;;;;;5167184;28;20089;-32
2023/12/28 07:40:28;;;;;;;30.13;12.85;;;4.10;1.00;;;;;;5198970;28;20367;-32
2023/12/28 07:43:01;;;;;;;23.58;11.40;;;4.00;1.00;;;;;;5202089;28;20179;-32
2023/12/28 07:45:32;;;;;;;30.50;12.00;;;4.00;1.00;;;;;;5181370;28;20033;-32
2023/12/28 07:48:04;;;;;;;29.70;12.35;;;3.80;1.00;;;;;;5217756;28;20271;-32
2023/12/28 07:50:35;;;;;;;27.73;12.40;;;3.80;1.00;;;;;;5185599;28;20038;-32
2023/12/28 07:53:09;;;;;;;24.42;11.57;;;4.00;1.00;;;;;;5194361;28;20255;-32
2023/12/28 07:55:41;;;;;;;30.52;12.95;;;4.10;1.00;;;;;;5175828;28;20225;-32
2023/12/28 07:58:12;;;;;;;29.25;11.52;;;4.30;1.00;;;;;;5155353;28;20045;-32
2023/12/28 08:00:43;;;;;;;26.75;11.95;;;4.40;1.00;;;;;;5172754;28;20389;-32
2023/12/28 08:03:20;;;;;;;24.75;10.68;;;4.50;1.00;;;;;;5180826;28;20037;-34
2023/12/28 08:05:54;;;;;;;27.67;10.63;;;4.60;1.00;;;;;;5196010;28;20039;-31
2023/12/28 08:08:25;;;;;;;22.38;10.80;;;4.60;1.00;;;;;;5162224;28;20030;-32
2023/12/28 08:10:59;;;;;;;22.42;9.98;;;4.60;1.00;;;;;;5175949;28;20037;-32
2023/12/28 08:13:33;;;;;;;31.37;14.23;;;4.50;1.00;;;;;;5180349;28;20017;-31
2023/12/28 08:16:09;;;;;;;24.67;11.27;;;4.50;1.00;;;;;;5173521;28;20053;-31
2023/12/28 08:18:40;;;;;;;25.67;10.85;;;4.50;1.00;;;;;;5180449;28;20379;-31
2023/12/28 08:21:14;;;;;;;19.80;10.20;;;4.40;1.00;;;;;;5196249;28;20028;-32
2023/12/28 08:23:45;;;;;;;25.23;11.30;;;4.10;1.00;;;;;;5197598;28;20485;-32
2023/12/28 08:26:16;;;;;;;33.45;11.40;;;4.30;1.00;;;;;;5199318;28;20047;-31
2023/12/28 08:28:48;;;;;;;25.42;10.07;;;4.30;1.00;;;;;;5196955;28;20021;-32
2023/12/28 08:31:19;;;;;;;32.92;11.05;;;4.40;1.00;;;;;;5167676;28;20305;-32
2023/12/28 08:33:50;;;;;;;27.10;10.43;;;4.40;1.00;;;;;;5166634;28;20040;-31
2023/12/28 08:36:27;;;;;;;23.45;9.75;;;4.50;1.00;;;;;;5195409;28;20345;-32
2023/12/28 08:39:00;;;;;;;18.30;9.40;;;4.50;1.00;;;;;;5199026;28;20052;-31
2023/12/28 08:41:32;;;;;;;17.08;9.00;;;4.60;1.00;;;;;;5180271;28;20025;-31
2023/12/28 08:44:03;;;;;;;21.33;8.68;;;4.40;1.00;;;;;;5180822;28;20041;-31
2023/12/28 08:46:36;;;;;;;18.13;9.73;;;4.40;1.00;;;;;;5162232;28;20037;-32
2023/12/28 08:49:15;;;;;;;23.85;13.57;;;4.40;1.00;;;;;;5196743;28;20390;-32
2023/12/28 08:51:49;;;;;;;24.15;11.38;;;4.30;1.00;;;;;;5189558;28;20063;-32
2023/12/28 08:54:22;;;;;;;29.50;10.70;;;4.20;1.00;;;;;;5199128;28;20021;-31
2023/12/28 08:56:53;;;;;;;24.38;10.52;;;4.20;1.00;;;;;;5190983;28;20151;-32
2023/12/28 08:59:25;;;;;;;20.80;10.05;;;4.40;1.00;;;;;;5197493;28;20028;-32
2023/12/28 09:01:57;;;;;;;21.10;9.63;;;4.50;1.00;;;;;;5194664;28;20026;-32
2023/12/28 09:04:31;;;;;;;24.30;10.85;;;4.60;1.00;;;;;;5199884;28;20029;-30
2023/12/28 09:07:03;;;;;;;18.95;9.48;;;4.60;1.00;;;;;;5191355;28;20073;-32
2023/12/28 09:09:36;;;;;;;22.20;9.68;;;4.70;1.00;;;;;;5177503;28;20313;-32
2023/12/28 09:12:12;;;;;;;22.83;11.35;;;4.70;1.00;;;;;;5177363;28;20226;-32
2023/12/28 09:14:44;;;;;;;18.80;9.82;;;4.70;1.00;;;;;;5196331;28;20033;-31
2023/12/28 09:17:15;;;;;;;17.30;8.07;;;4.70;1.00;;;;;;5194553;28;20233;-32
2023/12/28 09:19:49;;;;;;;21.83;9.45;;;4.40;1.00;;;;;;5198220;28;20264;-32
2023/12/28 09:22:23;;;;;;;15.77;8.00;;;4.30;1.00;;;;;;5197173;28;20167;-32
2023/12/28 09:24:54;;;;;;;21.17;8.85;;;4.20;1.00;;;;;;5186415;28;20033;-33
2023/12/28 09:27:25;;;;;;;15.05;7.65;;;4.30;1.00;;;;;;5198661;28;20033;-35
2023/12/28 09:29:56;;;;;;;20.90;9.05;;;4.20;1.00;;;;;;5198221;28;20225;-32
2023/12/28 09:32:28;;;;;;;15.73;7.85;;;4.50;1.00;;;;;;5191718;28;20290;-33
2023/12/28 09:35:04;;;;;;;15.32;8.77;;;4.60;1.00;;;;;;5193944;28;20030;-33
2023/12/28 09:37:36;;;;;;;16.35;8.15;;;4.50;1.00;;;;;;5194968;28;20033;-31
2023/12/28 09:40:07;;;;;;;16.90;8.40;;;4.70;1.00;;;;;;5192616;28;20043;-31
2023/12/28 09:43:08;;;;;;;17.60;8.82;;;4.70;99.90;;;;;;5191167;28;20384;-32
2023/12/28 09:45:40;;;;;;;18.92;8.68;;;4.60;1.00;;;;;;5175291;28;20042;-32
2023/12/28 09:48:12;;;;;;;18.50;9.82;;;4.60;1.00;;;;;;5202206;28;20036;-33
2023/12/28 09:50:54;;;;;;;13.55;8.07;;;4.60;1.00;;;;;;5206944;28;20021;-33
2023/12/28 09:53:26;;;;;;;18.67;8.43;;;4.70;1.00;;;;;;5182533;28;20034;-32
2023/12/28 09:55:58;;;;;;;20.92;9.27;;;4.30;1.00;;;;;;5164153;28;20037;-32
2023/12/28 09:58:32;;;;;;;21.48;8.80;;;4.40;1.00;;;;;;5185246;28;20026;-32
2023/12/28 10:01:06;;;;;;;18.88;9.18;;;4.40;1.00;;;;;;5171051;28;20030;-33
2023/12/28 10:03:37;;;;;;;16.30;7.53;;;4.60;1.00;;;;;;5167031;28;20046;-31
2023/12/28 10:06:08;;;;;;;16.02;8.20;;;4.50;1.00;;;;;;5192171;28;20282;-30
2023/12/28 10:08:50;;;;;;;17.80;9.27;;;4.40;1.00;;;;;;5167804;28;20037;-31
2023/12/28 10:11:23;;;;;;;19.63;9.18;;;4.60;1.00;;;;;;5183865;28;20034;-32
2023/12/28 10:14:00;;;;;;;15.95;7.65;;;4.90;1.00;;;;;;5194047;28;20025;-32
2023/12/28 10:16:31;;;;;;;20.10;9.07;;;5.00;1.00;;;;;;5182058;28;20219;-32
2023/12/28 10:19:03;;;;;;;17.33;8.63;;;5.00;99.90;;;;;;5182241;28;20029;-32
2023/12/28 10:21:43;;;;;;;15.73;7.65;;;4.90;99.90;;;;;;5185126;28;20209;-32
2023/12/28 10:24:17;;;;;;;17.17;8.35;;;4.70;99.90;;;;;;5176160;28;20044;-32
2023/12/28 10:26:49;;;;;;;17.95;8.63;;;4.80;99.90;;;;;;5184601;28;20030;-33
2023/12/28 10:29:20;;;;;;;18.05;8.80;;;4.70;99.90;;;;;;5186023;28;20033;-32
2023/12/28 10:31:54;;;;;;;18.38;9.43;;;4.80;1.00;;;;;;5182494;28;20048;-32
2023/12/28 10:34:27;;;;;;;18.90;8.20;;;4.80;99.90;;;;;;5172689;28;20230;-37
2023/12/28 10:37:02;;;;;;;15.35;8.00;;;4.70;99.90;;;;;;5168717;28;20041;-33
2023/12/28 10:39:38;;;;;;;22.00;8.45;;;4.80;99.90;;;;;;5178480;28;20390;-33
2023/12/28 10:42:14;;;;;;;17.65;8.70;;;4.90;99.90;;;;;;5184628;28;20321;-33
2023/12/28 10:44:56;;;;;;;17.80;8.27;;;5.20;99.90;;;;;;5179256;28;20030;-32
2023/12/28 10:47:31;;;;;;;16.85;9.07;;;4.90;1.00;;;;;;5178743;28;20173;-32
2023/12/28 10:50:07;;;;;;;17.27;8.25;;;4.80;94.50;;;;;;5179713;28;20044;-32
2023/12/28 10:52:43;;;;;;;17.58;8.02;;;4.60;1.00;;;;;;5189591;28;20041;-32
2023/12/28 10:55:45;;;;;;;14.75;7.60;;;4.20;1.00;;;;;;5186880;28;20026;-32
2023/12/28 10:58:46;;;;;;;18.13;9.05;;;4.60;1.00;;;;;;5199512;28;20013;-32
2023/12/28 11:01:25;;;;;;;15.13;8.00;;;4.70;99.90;;;;;;5160232;28;20050;-31
2023/12/28 11:04:08;;;;;;;14.65;7.68;;;4.60;99.90;;;;;;5204709;28;20060;-31
2023/12/28 11:06:42;;;;;;;12.60;7.03;;;4.70;99.90;;;;;;5199529;28;20017;-32
2023/12/28 11:09:15;;;;;;;17.05;8.15;;;4.70;1.00;;;;;;5196817;28;20040;-32
2023/12/28 11:11:47;;;;;;;14.32;7.68;;;4.90;60.20;;;;;;5191471;28;20251;-31
2023/12/28 11:14:21;;;;;;;17.90;8.65;;;5.00;1.00;;;;;;5191586;28;20029;-31
2023/12/28 11:16:54;;;;;;;14.73;7.88;;;4.80;99.90;;;;;;5193589;28;20028;-32
2023/12/28 11:19:32;;;;;;;14.77;7.55;;;4.60;1.00;;;;;;5176867;28;20375;-32
2023/12/28 11:22:10;;;;;;;15.90;7.95;;;4.60;1.00;;;;;;5192968;28;20038;-31
2023/12/28 11:24:42;;;;;;;14.85;7.55;;;4.40;1.00;;;;;;5195077;28;20364;-35
2023/12/28 11:27:16;;;;;;;17.05;8.30;;;4.40;1.00;;;;;;5193424;28;21347;-32
2023/12/28 11:29:48;;;;;;;;;;;4.50;99.90;;;;;;5182050;28;20033;-32
2023/12/28 11:32:19;;;;;;;22.88;10.52;;;4.40;99.90;;;;;;5171461;28;19940;-33
2023/12/28 11:34:58;;;;;;;35.35;18.38;;;4.50;99.90;;;;;;5196926;28;20321;-32
2023/12/28 11:37:30;;;;;;;15.90;9.18;;;4.40;1.00;;;;;;5199939;28;20035;-32
2023/12/28 11:40:17;;;;;;;14.82;7.43;;;4.70;99.90;;;;;;5184173;28;20036;-32
2023/12/28 11:42:53;;;;;;;16.70;7.88;;;5.00;99.90;;;;;;5201207;28;20041;-32
2023/12/28 11:45:27;;;;;;;17.92;9.88;;;5.30;1.00;;;;;;5190275;28;20288;-33
2023/12/28 11:48:02;;;;;;;22.70;8.38;;;5.50;99.90;;;;;;5182129;28;20021;-33
2023/12/28 11:50:39;;;;;;;27.25;10.98;;;5.50;99.90;;;;;;5197834;28;20025;-32
2023/12/28 11:53:12;;;;;;;18.25;9.38;;;5.40;1.00;;;;;;5194717;28;20052;-32
2023/12/28 11:55:44;;;;;;;18.20;8.20;;;5.00;99.90;;;;;;5176218;28;20362;-32
2023/12/28 11:58:17;;;;;;;18.13;8.52;;;5.20;99.90;;;;;;5201139;28;20030;-35
2023/12/28 12:00:49;;;;;;;14.40;7.43;;;5.30;99.90;;;;;;5198344;28;20029;-32
2023/12/28 12:03:20;;;;;;;18.85;9.18;;;5.30;99.90;;;;;;5215300;28;20326;-32
2023/12/28 12:05:51;;;;;;;14.77;7.72;;;5.30;99.90;;;;;;5196781;28;20033;-32
2023/12/28 12:08:25;;;;;;;15.88;8.02;;;5.20;99.90;;;;;;5219336;28;20221;-32
2023/12/28 12:11:09;;;;;;;16.95;8.40;;;5.30;1.00;;;;;;5216686;28;20033;-32
2023/12/28 12:13:40;;;;;;;15.43;8.98;;;5.40;99.90;;;;;;5187771;28;20063;-32
2023/12/28 12:16:14;;;;;;;18.05;7.80;;;5.40;99.90;;;;;;5195335;28;20033;-32
2023/12/28 12:18:48;;;;;;;17.52;7.50;;;5.30;1.00;;;;;;5186731;28;20025;-32
2023/12/28 12:21:22;;;;;;;20.70;9.55;;;5.10;99.90;;;;;;5196970;28;20032;-34
2023/12/28 12:23:58;;;;;;;;;;;5.20;1.00;;;;;;5185541;28;20041;-31
2023/12/28 12:26:31;;;;;;;18.77;9.50;;;5.20;99.90;;;;;;5204617;28;19986;-31
2023/12/28 12:29:08;;;;;;;15.60;7.80;;;5.00;1.00;;;;;;5185602;28;20230;-31
2023/12/28 12:31:41;;;;;;;17.83;7.88;;;5.10;1.00;;;;;;5182364;28;20329;-33
2023/12/28 12:34:16;;;;;;;12.55;7.05;;;4.70;1.00;;;;;;5183786;28;20045;-32
2023/12/28 12:36:52;;;;;;;16.67;8.00;;;4.60;1.00;;;;;;5203256;28;20377;-32
2023/12/28 12:39:26;;;;;;;17.33;7.85;;;4.70;1.00;;;;;;5183591;28;20033;-32
2023/12/28 12:42:00;;;;;;;14.98;7.93;;;4.60;1.00;;;;;;5185274;28;20037;-31
2023/12/28 12:44:31;;;;;;;18.60;9.15;;;4.80;1.00;;;;;;5161819;28;20088;-31
2023/12/28 12:47:05;;;;;;;16.52;8.10;;;5.00;1.00;;;;;;5175932;28;20056;-31
2023/12/28 12:49:43;;;;;;;16.85;8.57;;;5.10;99.90;;;;;;5197007;28;20411;-31
2023/12/28 12:52:14;;;;;;;14.02;8.68;;;5.50;1.00;;;;;;5190893;28;20041;-31
2023/12/28 12:54:53;;;;;;;14.82;7.93;;;5.90;1.00;;;;;;5184309;28;20237;-32
2023/12/28 12:57:27;;;;;;;13.52;7.78;;;6.00;1.00;;;;;;5181197;28;20025;-32
2023/12/28 13:00:01;;;;;;;14.63;7.70;;;6.30;99.90;;;;;;5184114;28;20044;-32
2023/12/28 13:02:38;;;;;;;14.20;6.97;;;6.20;99.90;;;;;;5199253;28;20301;-32
2023/12/28 13:05:12;;;;;;;13.57;7.22;;;6.20;1.00;;;;;;5186022;28;20029;-32
2023/12/28 13:07:47;;;;;;;11.13;7.28;;;7.20;1.00;;;;;;5183976;28;20048;-31
2023/12/28 13:10:18;;;;;;;12.10;7.32;;;7.30;99.90;;;;;;5184372;28;20329;-31
2023/12/28 13:12:50;;;;;;;13.20;7.57;;;7.10;99.90;;;;;;5181285;28;20022;-31
2023/12/28 13:15:21;;;;;;;8.93;5.65;;;6.70;99.90;;;;;;5177675;28;20029;-32
2023/12/28 13:17:55;;;;;;;13.07;6.93;;;7.20;99.90;;;;;;5162623;28;20319;-31
2023/12/28 13:20:26;;;;;;;10.80;6.07;;;7.70;16.70;;;;;;5182473;28;20040;-31
2023/12/28 13:22:58;;;;;;;10.02;5.75;;;8.00;82.80;;;;;;5177585;28;20038;-31
2023/12/28 13:25:32;;;;;;;13.45;6.80;;;8.50;1.00;;;;;;5182615;28;20037;-31
2023/12/28 13:28:06;;;;;;;19.80;10.77;;;7.80;1.00;;;;;;5150877;28;20207;-31
2023/12/28 13:30:38;;;;;;;13.63;9.10;;;7.40;1.00;;;;;;5179389;28;20034;-34